首页
METAR-TAF:

METAR-TAF

机场 :

塔斯卡卢萨, 阿拉巴马州, 美国

纬度: 33-12-43N, 经度: 087-36-57W, 海拔: 52米

当前天气观测

该预报发布于30分钟前的13:53 UTC
风速6节,风向
温度 23°C
湿度 94%
气压 1016 hPa
能見度: 16.1公里
多云层高于800英尺
多云层高于1800英尺

METAR: KTCL 041353Z 18006KT 10SM BKN008 BKN018 23/22 A3000 RMK AO2 RAB15E25 SLP154 P0000 T02330217

时间: 09:23 (14:23 UTC)

预报

该预报发布于28分钟前的13:55 UTC
预报有效从04日的 14点(UTC)到 05日的 12点(UTC)
风速4节,风向南转南东
能見度: 10公里
多云层高于700英尺
阴天层高于1900英尺
从 04日的 1500点(UTC)
风速4节,风向多变
能見度: 10公里
散云层高于4000英尺
附近有阵雨
从 04日的 1800点(UTC)
风速7节,风向南转西南
能見度: 10公里
多云层高于5000英尺, 积雨云.
阵雨, 附近有雷暴
短暂存在
从 04日的 18点(UTC)到 04日的 21点(UTC)
能見度: 6.4公里
阴天层高于2500英尺, 积雨云.
雷暴, 雨
从 04日的 2100点(UTC)
风速7节,风向西南
能見度: 9.7公里
多云层高于3000英尺, 积雨云.
阵雨, 附近有雷暴
从 05日的 0600点(UTC)
风速3节,风向多变
能見度: 10公里
散云层高于2400英尺

TAF: KTCL 041355Z 0414/0512 16004KT P6SM BKN007 OVC019 FM041500 VRB04KT P6SM VCSH SCT040 FM041800 21007KT P6SM SHRA VCTS BKN050CB TEMPO 0418/0421 4SM TSRA OVC025CB FM042100 22007KT 6SM SHRA VCTS BKN030CB FM050600 VRB03KT P6SM SCT024

超过4000个机场的气象观测和天气预报(METAR&TAF报告)。

可查询的气象台以黄色和红色小点在地图上表示。

将鼠标移到小点上方,可查看气象台名称。

然后点击查看天气观测和预报。

如需切换地图:点击带黑十字的绿色按钮放大地图;点击带横线的绿色按钮缩小地图;或者点击绿色箭头查看邻近地区的地图。


METAR-TAF: